createdAt,value
2018-08-09T00:00:54.250Z,8.87
2018-08-09T00:05:51.759Z,9.23
2018-08-09T00:10:49.269Z,9.30
2018-08-09T00:15:46.790Z,9.97
2018-08-09T00:20:44.278Z,10.27
2018-08-09T00:25:41.761Z,9.30
2018-08-09T00:30:39.313Z,9.40
2018-08-09T00:35:36.798Z,9.70
2018-08-09T00:40:34.283Z,10.30
2018-08-09T00:45:31.950Z,10.53
2018-08-09T00:50:29.488Z,9.10
2018-08-09T00:55:26.995Z,9.33
2018-08-09T01:00:24.502Z,9.30
2018-08-09T01:05:22.005Z,10.53
2018-08-09T01:10:19.515Z,11.03
2018-08-09T01:15:17.003Z,10.70
2018-08-09T01:20:14.549Z,11.20
2018-08-09T01:25:12.049Z,10.67
2018-08-09T01:30:09.547Z,11.13
2018-08-09T01:35:07.086Z,11.37
2018-08-09T01:40:05.371Z,10.77
2018-08-09T01:45:02.845Z,12.80
2018-08-09T01:50:02.620Z,11.40
2018-08-09T01:55:01.163Z,11.10
2018-08-09T01:59:58.739Z,9.50
2018-08-09T02:04:56.309Z,11.83
2018-08-09T02:09:53.829Z,11.70
2018-08-09T02:14:51.318Z,12.30
2018-08-09T02:19:48.781Z,11.10
2018-08-09T02:24:47.166Z,11.97
2018-08-09T02:29:44.638Z,11.83
2018-08-09T02:34:42.200Z,12.60
2018-08-09T02:39:39.686Z,12.27
2018-08-09T02:44:37.234Z,11.40
2018-08-09T02:49:34.733Z,12.77
2018-08-09T02:54:32.218Z,12.20
2018-08-09T02:59:29.728Z,13.40
2018-08-09T03:04:27.254Z,12.90
2018-08-09T03:09:24.745Z,13.33
2018-08-09T03:14:22.224Z,12.37
2018-08-09T03:19:19.698Z,11.90
2018-08-09T03:24:17.278Z,11.53
2018-08-09T03:29:14.763Z,12.40
2018-08-09T03:34:12.309Z,12.87
2018-08-09T03:39:11.115Z,11.30
2018-08-09T03:44:08.639Z,12.60
2018-08-09T03:49:06.492Z,11.70
2018-08-09T03:54:04.001Z,12.00
2018-08-09T03:59:01.680Z,13.37
2018-08-09T04:03:59.179Z,11.57
2018-08-09T04:08:56.679Z,11.93
2018-08-09T04:13:54.178Z,12.50
2018-08-09T04:18:51.748Z,11.77
2018-08-09T04:23:49.259Z,11.07
2018-08-09T04:28:46.777Z,11.63
2018-08-09T04:33:44.280Z,12.40
2018-08-09T04:38:42.158Z,12.57
2018-08-09T04:43:39.734Z,12.13
2018-08-09T04:48:37.332Z,11.90
2018-08-09T04:53:34.845Z,12.97
2018-08-09T04:58:32.407Z,13.00
2018-08-09T05:03:30.237Z,13.00
2018-08-09T05:08:27.741Z,13.67
2018-08-09T05:13:25.243Z,14.63
2018-08-09T05:18:22.750Z,14.50
2018-08-09T05:23:20.238Z,14.00
2018-08-09T05:28:17.738Z,15.47
2018-08-09T05:33:15.262Z,14.50
2018-08-09T05:38:12.738Z,15.03
2018-08-09T05:43:10.278Z,17.97
2018-08-09T05:48:07.780Z,12.20
2018-08-09T05:53:05.665Z,14.80
2018-08-09T05:58:03.210Z,17.13
2018-08-09T06:03:00.706Z,14.57
2018-08-09T06:07:58.214Z,14.37
2018-08-09T06:12:56.919Z,16.37
2018-08-09T06:17:54.391Z,13.87
2018-08-09T06:22:52.034Z,14.40
2018-08-09T06:27:49.521Z,14.60
2018-08-09T06:32:46.982Z,14.73
2018-08-09T06:37:44.511Z,14.10
2018-08-09T06:42:44.259Z,14.57
2018-08-09T06:47:41.802Z,15.30
2018-08-09T06:52:49.986Z,13.50
2018-08-09T06:57:52.269Z,13.10
2018-08-09T07:02:49.801Z,13.87
2018-08-09T07:07:47.335Z,13.40
2018-08-09T07:12:45.974Z,13.70
2018-08-09T07:17:43.546Z,13.90
2018-08-09T07:22:41.541Z,14.70
2018-08-09T07:27:39.067Z,15.37
2018-08-09T07:32:36.734Z,13.90
2018-08-09T07:37:34.252Z,15.13
2018-08-09T07:42:39.224Z,15.67
2018-08-09T07:47:36.799Z,15.17
2018-08-09T07:52:34.321Z,18.90
2018-08-09T07:57:31.830Z,20.00
2018-08-09T08:02:29.317Z,22.93
2018-08-09T08:07:26.842Z,24.30
2018-08-09T08:12:33.248Z,25.70
2018-08-09T08:17:30.742Z,25.07
2018-08-09T08:22:28.234Z,23.17
2018-08-09T08:27:25.762Z,24.67
2018-08-09T08:32:23.295Z,26.93
2018-08-09T08:37:20.849Z,23.57
2018-08-09T08:42:21.125Z,25.60
2018-08-09T08:47:18.818Z,26.00
2018-08-09T08:52:16.285Z,25.07
2018-08-09T08:57:13.790Z,26.00
2018-08-09T09:02:11.314Z,26.73
2018-08-09T09:07:08.860Z,25.47
2018-08-09T09:12:15.361Z,26.90
2018-08-09T09:17:12.993Z,23.20
2018-08-09T09:22:10.524Z,25.57
2018-08-09T09:27:09.330Z,27.87
2018-08-09T09:32:06.838Z,27.60
2018-08-09T09:37:04.659Z,28.93
2018-08-09T09:42:05.980Z,27.60
2018-08-09T09:47:03.611Z,26.93
2018-08-09T09:52:01.165Z,26.40
2018-08-09T09:56:58.677Z,26.77
2018-08-09T10:01:56.250Z,26.37
2018-08-09T10:06:53.737Z,24.67
2018-08-09T10:11:53.182Z,22.40
2018-08-09T10:16:50.653Z,19.97
2018-08-09T10:21:48.147Z,14.20
2018-08-09T10:26:45.662Z,12.13
2018-08-09T10:31:45.529Z,18.10
2018-08-09T10:36:43.063Z,14.73
2018-08-09T10:41:40.566Z,17.23
2018-08-09T10:46:38.053Z,15.60
2018-08-09T10:51:35.553Z,17.60
2018-08-09T10:56:33.069Z,18.20
2018-08-09T11:01:30.607Z,15.70
2018-08-09T11:06:28.097Z,12.83
2018-08-09T11:11:25.628Z,13.00
2018-08-09T11:16:23.125Z,12.90
2018-08-09T11:21:20.624Z,15.93
2018-08-09T11:26:18.127Z,13.40
2018-08-09T11:31:18.869Z,13.63
2018-08-09T11:36:16.453Z,14.73
2018-08-09T11:41:23.851Z,13.07
2018-08-09T11:46:22.574Z,14.40
2018-08-09T11:51:20.071Z,12.70
2018-08-09T11:56:17.674Z,12.20
2018-08-09T12:01:15.226Z,11.20
2018-08-09T12:06:12.717Z,9.73
2018-08-09T12:11:10.316Z,9.33
2018-08-09T12:16:07.870Z,10.20
2018-08-09T12:21:05.632Z,10.13
2018-08-09T12:26:03.150Z,10.77
2018-08-09T12:31:00.637Z,9.67
2018-08-09T12:35:58.158Z,9.90
2018-08-09T12:41:26.661Z,10.00
2018-08-09T12:46:24.238Z,9.73
2018-08-09T12:51:21.780Z,9.10
2018-08-09T12:56:19.330Z,9.47
2018-08-09T13:01:16.904Z,10.13
2018-08-09T13:06:14.392Z,8.40
2018-08-09T13:11:15.085Z,8.47
2018-08-09T13:16:12.655Z,9.00
2018-08-09T13:21:10.172Z,8.20
2018-08-09T13:26:07.800Z,8.70
2018-08-09T13:31:05.488Z,7.67
2018-08-09T13:36:03.134Z,8.67
2018-08-09T13:41:00.617Z,8.33
2018-08-09T13:45:58.129Z,8.50
2018-08-09T13:50:55.640Z,8.40
2018-08-09T13:55:53.146Z,8.73
2018-08-09T14:00:50.758Z,8.23
2018-08-09T14:05:48.238Z,8.90
2018-08-09T14:10:45.755Z,7.83
2018-08-09T14:15:43.340Z,7.07
2018-08-09T14:20:40.934Z,5.60
2018-08-09T14:25:38.457Z,5.43
2018-08-09T14:30:36.031Z,5.37
2018-08-09T14:35:33.586Z,5.80
2018-08-09T14:40:31.278Z,6.50
2018-08-09T14:45:28.850Z,6.47
2018-08-09T14:50:30.741Z,4.00
2018-08-09T14:55:32.540Z,6.60
2018-08-09T15:00:33.365Z,7.20
2018-08-09T15:05:33.895Z,6.70
2018-08-09T15:10:31.695Z,5.97
2018-08-09T15:15:29.310Z,5.43
2018-08-09T15:20:26.862Z,5.60
2018-08-09T15:25:24.386Z,4.67
2018-08-09T15:30:30.549Z,4.90
2018-08-09T15:35:28.080Z,5.03
2018-08-09T15:40:25.598Z,4.83
2018-08-09T15:45:27.799Z,5.70
2018-08-09T15:50:26.922Z,6.07
2018-08-09T15:55:26.175Z,4.77
2018-08-09T16:00:31.965Z,4.87
2018-08-09T16:05:33.076Z,4.50
2018-08-09T16:10:30.635Z,4.77
2018-08-09T16:15:28.142Z,5.50
2018-08-09T16:20:25.668Z,4.37
2018-08-09T16:25:23.198Z,4.70
2018-08-09T16:30:22.759Z,5.17
2018-08-09T16:35:20.275Z,4.50
2018-08-09T16:40:25.958Z,4.20
2018-08-09T16:45:24.349Z,3.87
2018-08-09T16:50:23.530Z,3.20
2018-08-09T16:55:22.146Z,3.23
2018-08-09T17:00:21.967Z,2.73
2018-08-09T17:05:20.723Z,2.90
2018-08-09T17:10:19.602Z,3.60
2018-08-09T17:15:21.749Z,2.83
2018-08-09T17:20:23.439Z,3.23
2018-08-09T17:25:21.028Z,3.60
2018-08-09T17:30:20.159Z,3.67
2018-08-09T17:35:18.344Z,3.93
2018-08-09T17:40:19.894Z,3.53
2018-08-09T17:45:18.383Z,4.30
2018-08-09T17:50:15.955Z,4.47
2018-08-09T17:55:14.766Z,4.47
2018-08-09T18:00:17.778Z,4.60
2018-08-09T18:05:15.348Z,4.60
2018-08-09T18:10:17.620Z,4.73
2018-08-09T18:15:15.626Z,4.33
2018-08-09T18:20:16.727Z,4.27
2018-08-09T18:25:15.082Z,4.40
2018-08-09T18:30:14.729Z,4.20
2018-08-09T18:35:14.646Z,4.10
2018-08-09T18:40:15.539Z,4.10
2018-08-09T18:45:13.077Z,4.20
2018-08-09T18:50:13.882Z,3.53
2018-08-09T18:55:12.722Z,4.00
2018-08-09T19:00:13.786Z,3.70
2018-08-09T19:05:11.294Z,3.33
2018-08-09T19:10:12.014Z,2.47
2018-08-09T19:15:10.433Z,3.10
2018-08-09T19:20:15.893Z,3.47
2018-08-09T19:25:13.787Z,3.80
2018-08-09T19:30:12.199Z,2.97
2018-08-09T19:35:11.566Z,3.00
2018-08-09T19:40:10.600Z,2.60
2018-08-09T19:45:10.132Z,3.60
2018-08-09T19:50:10.764Z,3.17
2018-08-09T19:55:10.263Z,3.13
2018-08-09T20:00:10.202Z,3.20
2018-08-09T20:05:08.907Z,3.23
2018-08-09T20:10:07.093Z,3.40
2018-08-09T20:15:07.161Z,2.70
2018-08-09T20:20:06.819Z,1.90
2018-08-09T20:25:05.346Z,1.60
2018-08-09T20:30:03.074Z,1.67
2018-08-09T20:35:00.645Z,1.93
2018-08-09T20:39:58.143Z,2.77
2018-08-09T20:44:55.704Z,2.07
2018-08-09T20:49:54.272Z,2.47
2018-08-09T20:54:51.747Z,2.90
2018-08-09T20:59:49.237Z,1.97
2018-08-09T21:04:46.706Z,2.10
2018-08-09T21:09:44.254Z,2.07
2018-08-09T21:14:41.734Z,3.33
2018-08-09T21:19:40.277Z,1.90
2018-08-09T21:24:37.769Z,2.30
2018-08-09T21:29:35.270Z,2.67
2018-08-09T21:34:32.803Z,1.87
2018-08-09T21:39:30.331Z,1.90
2018-08-09T21:44:27.810Z,2.17
2018-08-09T21:49:28.830Z,2.40
2018-08-09T21:54:26.485Z,2.40
2018-08-09T21:59:24.055Z,1.90
2018-08-09T22:04:21.560Z,2.53
2018-08-09T22:09:24.705Z,2.60
2018-08-09T22:14:27.845Z,2.23
2018-08-09T22:19:35.868Z,2.20
2018-08-09T22:24:33.459Z,2.70
2018-08-09T22:30:02.119Z,1.50
2018-08-09T22:34:59.640Z,2.90
2018-08-09T22:39:57.159Z,1.50
2018-08-09T22:44:54.707Z,1.50
2018-08-09T22:49:53.278Z,0.90
2018-08-09T22:54:50.802Z,0.90
2018-08-09T22:59:48.337Z,1.10
2018-08-09T23:04:45.824Z,0.90
2018-08-09T23:09:43.336Z,1.00
2018-08-09T23:14:40.837Z,1.10
2018-08-09T23:19:41.749Z,1.17
2018-08-09T23:24:39.283Z,1.80
2018-08-09T23:29:36.858Z,2.07
2018-08-09T23:34:34.439Z,1.90
2018-08-09T23:39:31.922Z,2.00
2018-08-09T23:44:29.419Z,2.70
2018-08-09T23:49:35.978Z,2.17
2018-08-09T23:54:35.417Z,1.77
2018-08-09T23:59:32.923Z,2.23
